KRIW

Riverton Regional Airport

Riverton, Wyoming, USA
METAR KRIW 181553Z AUTO 00000KT 10SM CLR 06/M01 A3021 RMK AO2 SLP229 T00611011
Observed Flight Rules
Oct-18 @ 15:53 UTC (18 minutes ago) Visual Flight Rules
Visibility Clouds
10 miles
  • Clear skies
Temperatures Readings
Current 6°C / 43°F
Dewpoint -1°C / 30°F
Humidity 61%
Altimeter 30.21" Hg
Pressure 1022.9 hPa
Elevation 1697
METAR KRIW 181553Z AUTO 00000KT 10SM CLR 06/M01 A3021 RMK AO2 SLP229 T00611011
Observed Flight Rules
Oct-18 @ 15:53 UTC
(18 minutes ago)
VFR
Clouds
  • Clear skies
Temperature Dewpoint
6°C / 43°F -1°C / 30°F
Humidity Altimeter Pressure
61% 30.21" Hg 1022.9 hPa